createdAt,value
2023-03-29T00:01:35.999Z,1.83
2023-03-29T00:04:06.624Z,2.13
2023-03-29T00:06:33.426Z,2.58
2023-03-29T00:08:59.891Z,1.63
2023-03-29T00:11:29.410Z,1.92
2023-03-29T00:13:55.558Z,1.83
2023-03-29T00:16:21.832Z,2.20
2023-03-29T00:18:48.170Z,2.17
2023-03-29T00:21:17.068Z,2.38
2023-03-29T00:23:43.392Z,2.40
2023-03-29T00:26:12.747Z,1.80
2023-03-29T00:28:38.869Z,2.13
2023-03-29T00:31:06.861Z,1.80
2023-03-29T00:33:33.152Z,1.63
2023-03-29T00:35:59.267Z,2.10
2023-03-29T00:38:30.384Z,1.60
2023-03-29T00:40:59.297Z,2.40
2023-03-29T00:43:25.565Z,1.95
2023-03-29T00:45:51.859Z,2.67
2023-03-29T00:48:21.323Z,2.30
2023-03-29T00:50:53.091Z,1.52
2023-03-29T00:53:23.699Z,1.90
2023-03-29T00:56:06.946Z,3.08
2023-03-29T00:59:01.435Z,1.98
2023-03-29T01:01:46.740Z,2.22
2023-03-29T01:04:47.442Z,1.90
2023-03-29T01:07:22.090Z,2.13
2023-03-29T01:09:58.128Z,2.17
2023-03-29T01:12:30.382Z,2.30
2023-03-29T01:15:02.161Z,2.00
2023-03-29T01:17:31.317Z,2.17
2023-03-29T01:20:17.640Z,2.22
2023-03-29T01:22:54.258Z,1.75
2023-03-29T01:25:30.054Z,2.00
2023-03-29T01:28:10.675Z,1.70
2023-03-29T01:30:48.479Z,1.60
2023-03-29T01:33:21.351Z,1.85
2023-03-29T01:36:01.835Z,1.98
2023-03-29T01:38:37.587Z,1.92
2023-03-29T01:41:04.451Z,1.50
2023-03-29T01:43:37.487Z,1.80
2023-03-29T01:46:32.271Z,1.85
2023-03-29T01:49:04.257Z,1.92
2023-03-29T01:51:41.668Z,1.80
2023-03-29T01:54:28.632Z,1.58
2023-03-29T01:57:00.161Z,1.63
2023-03-29T01:59:29.894Z,2.05
2023-03-29T02:01:59.661Z,2.00
2023-03-29T02:04:31.523Z,1.48
2023-03-29T02:06:59.688Z,1.70
2023-03-29T02:09:31.066Z,2.10
2023-03-29T02:12:01.803Z,1.50
2023-03-29T02:14:30.329Z,1.63
2023-03-29T02:17:19.601Z,2.08
2023-03-29T02:19:49.909Z,1.95
2023-03-29T02:22:22.582Z,1.58
2023-03-29T02:24:50.802Z,2.15
2023-03-29T02:27:17.002Z,1.13
2023-03-29T02:29:43.126Z,2.05
2023-03-29T02:32:14.579Z,1.55
2023-03-29T02:35:22.786Z,1.85
2023-03-29T02:37:54.097Z,1.70
2023-03-29T02:40:21.539Z,1.50
2023-03-29T02:42:48.424Z,1.60
2023-03-29T02:45:17.025Z,1.55
2023-03-29T02:47:49.504Z,1.35
2023-03-29T02:50:16.281Z,1.50
2023-03-29T02:52:52.493Z,1.60
2023-03-29T02:55:19.843Z,1.50
2023-03-29T02:57:49.320Z,2.08
2023-03-29T03:00:20.793Z,1.30
2023-03-29T03:02:50.406Z,1.80
2023-03-29T03:05:17.542Z,1.92
2023-03-29T03:07:43.791Z,1.35
2023-03-29T03:10:10.850Z,2.05
2023-03-29T03:12:37.240Z,1.30
2023-03-29T03:15:07.455Z,1.33
2023-03-29T03:17:34.367Z,1.55
2023-03-29T03:20:01.816Z,2.00
2023-03-29T03:22:28.090Z,1.80
2023-03-29T03:24:55.628Z,1.60
2023-03-29T03:27:24.847Z,1.52
2023-03-29T03:29:51.152Z,1.17
2023-03-29T03:32:22.218Z,1.67
2023-03-29T03:34:48.584Z,2.13
2023-03-29T03:37:15.218Z,1.63
2023-03-29T03:39:41.411Z,1.95
2023-03-29T03:42:11.194Z,1.80
2023-03-29T03:44:41.381Z,1.35
2023-03-29T03:47:07.561Z,1.75
2023-03-29T03:49:33.837Z,1.40
2023-03-29T03:52:01.605Z,1.75
2023-03-29T03:54:27.946Z,2.03
2023-03-29T03:56:54.186Z,1.90
2023-03-29T03:59:20.749Z,1.55
2023-03-29T04:01:47.022Z,1.83
2023-03-29T04:04:14.169Z,2.08
2023-03-29T04:06:43.733Z,2.05
2023-03-29T04:09:11.418Z,1.83
2023-03-29T04:11:37.757Z,2.17
2023-03-29T04:14:07.293Z,1.67
2023-03-29T04:16:36.520Z,2.08
2023-03-29T04:19:06.704Z,2.08
2023-03-29T04:21:38.026Z,1.83
2023-03-29T04:24:04.875Z,1.45
2023-03-29T04:26:31.099Z,1.55
2023-03-29T04:28:59.998Z,2.70
2023-03-29T04:31:28.907Z,2.42
2023-03-29T04:33:55.109Z,1.63
2023-03-29T04:36:21.698Z,2.47
2023-03-29T04:38:52.230Z,1.80
2023-03-29T04:41:21.479Z,1.83
2023-03-29T04:43:53.568Z,1.73
2023-03-29T04:46:20.400Z,1.83
2023-03-29T04:48:46.962Z,2.28
2023-03-29T04:51:15.624Z,2.15
2023-03-29T04:53:41.742Z,1.90
2023-03-29T04:56:08.819Z,1.92
2023-03-29T04:58:35.231Z,1.92
2023-03-29T05:01:01.571Z,2.17
2023-03-29T05:03:30.642Z,1.90
2023-03-29T05:06:07.450Z,2.00
2023-03-29T05:08:38.048Z,1.95
2023-03-29T05:11:09.323Z,1.77
2023-03-29T05:13:39.760Z,2.28
2023-03-29T05:16:08.284Z,2.08
2023-03-29T05:18:38.056Z,1.88
2023-03-29T05:21:06.950Z,2.25
2023-03-29T05:23:34.105Z,1.90
2023-03-29T05:26:00.169Z,2.00
2023-03-29T05:28:27.220Z,1.80
2023-03-29T05:31:01.834Z,2.00
2023-03-29T05:33:28.452Z,2.25
2023-03-29T05:36:07.925Z,1.90
2023-03-29T05:38:35.387Z,1.92
2023-03-29T05:41:01.725Z,2.45
2023-03-29T05:43:28.732Z,2.65
2023-03-29T05:45:57.966Z,2.30
2023-03-29T05:48:24.831Z,2.05
2023-03-29T05:50:53.132Z,2.03
2023-03-29T05:53:22.411Z,2.83
2023-03-29T05:55:49.046Z,2.00
2023-03-29T05:58:17.680Z,2.33
2023-03-29T06:00:44.356Z,2.78
2023-03-29T06:03:21.481Z,3.15
2023-03-29T06:05:55.412Z,2.70
2023-03-29T06:08:22.017Z,2.47
2023-03-29T06:10:49.094Z,2.28
2023-03-29T06:13:15.464Z,2.60
2023-03-29T06:15:41.803Z,1.92
2023-03-29T06:18:09.477Z,2.05
2023-03-29T06:20:37.392Z,2.42
2023-03-29T06:23:03.588Z,1.98
2023-03-29T06:25:32.264Z,2.22
2023-03-29T06:27:58.705Z,2.35
2023-03-29T06:30:25.625Z,2.35
2023-03-29T06:32:52.893Z,2.60
2023-03-29T06:35:19.318Z,2.00
2023-03-29T06:37:49.791Z,1.92
2023-03-29T06:40:18.727Z,2.63
2023-03-29T06:42:46.890Z,2.10
2023-03-29T06:45:13.573Z,2.42
2023-03-29T06:47:40.808Z,2.42
2023-03-29T06:50:08.394Z,2.30
2023-03-29T06:52:34.695Z,2.40
2023-03-29T06:55:07.242Z,3.83
2023-03-29T06:57:35.985Z,3.05
2023-03-29T07:00:14.458Z,2.72
2023-03-29T07:02:44.896Z,2.55
2023-03-29T07:05:13.182Z,2.15
2023-03-29T07:07:56.448Z,2.08
2023-03-29T07:10:25.676Z,2.83
2023-03-29T07:12:52.449Z,2.25
2023-03-29T07:15:20.400Z,2.15
2023-03-29T07:17:48.443Z,2.55
2023-03-29T07:20:15.422Z,2.28
2023-03-29T07:22:43.141Z,2.13
2023-03-29T07:25:10.362Z,2.50
2023-03-29T07:27:36.867Z,2.55
2023-03-29T07:30:15.401Z,2.72
2023-03-29T07:32:48.502Z,2.33
2023-03-29T07:35:14.882Z,2.20
2023-03-29T07:37:42.509Z,1.90
2023-03-29T07:40:18.583Z,2.15
2023-03-29T07:42:48.418Z,2.00
2023-03-29T07:45:26.098Z,2.50
2023-03-29T07:47:58.120Z,2.10
2023-03-29T07:50:25.002Z,2.78
2023-03-29T07:52:51.496Z,2.00
2023-03-29T07:55:18.679Z,2.20
2023-03-29T07:57:47.499Z,3.45
2023-03-29T08:00:19.234Z,2.50
2023-03-29T08:02:47.392Z,1.98
2023-03-29T08:05:14.764Z,2.25
2023-03-29T08:07:47.480Z,2.05
2023-03-29T08:10:16.179Z,1.70
2023-03-29T08:12:43.513Z,2.78
2023-03-29T08:15:13.043Z,2.50
2023-03-29T08:17:39.844Z,2.25
2023-03-29T08:20:09.211Z,2.00
2023-03-29T08:22:36.131Z,1.92
2023-03-29T08:25:03.945Z,2.05
2023-03-29T08:27:30.525Z,2.67
2023-03-29T08:29:57.776Z,1.92
2023-03-29T08:32:26.666Z,2.22
2023-03-29T08:34:52.851Z,1.85
2023-03-29T08:37:19.529Z,1.70
2023-03-29T08:39:45.782Z,1.92
2023-03-29T08:42:32.460Z,1.90
2023-03-29T08:45:36.610Z,1.92
2023-03-29T08:48:26.825Z,2.42
2023-03-29T08:50:55.671Z,1.40
2023-03-29T08:53:44.920Z,1.67
2023-03-29T08:56:14.741Z,2.08
2023-03-29T08:58:41.772Z,2.25
2023-03-29T09:01:11.846Z,1.58
2023-03-29T09:03:45.135Z,2.20
2023-03-29T09:06:12.631Z,1.85
2023-03-29T09:08:44.796Z,2.00
2023-03-29T09:11:21.096Z,2.00
2023-03-29T09:14:09.084Z,2.25
2023-03-29T09:16:50.241Z,3.22
2023-03-29T09:19:35.291Z,1.95
2023-03-29T09:22:09.934Z,1.95
2023-03-29T09:25:10.559Z,2.08
2023-03-29T09:28:05.865Z,1.92
2023-03-29T09:30:36.099Z,1.90
2023-03-29T09:33:30.148Z,1.88
2023-03-29T09:36:05.466Z,1.90
2023-03-29T09:38:32.806Z,1.90
2023-03-29T09:41:05.042Z,2.40
2023-03-29T09:43:38.511Z,2.17
2023-03-29T09:46:15.546Z,2.30
2023-03-29T09:48:43.242Z,1.52
2023-03-29T09:51:10.330Z,2.03
2023-03-29T09:53:36.937Z,1.92
2023-03-29T09:56:04.171Z,1.88
2023-03-29T09:58:33.966Z,2.13
2023-03-29T10:01:02.613Z,2.25
2023-03-29T10:03:31.828Z,1.95
2023-03-29T10:06:02.415Z,1.85
2023-03-29T10:08:29.681Z,1.80
2023-03-29T10:11:00.471Z,2.17
2023-03-29T10:13:31.374Z,1.98
2023-03-29T10:16:08.581Z,3.30
2023-03-29T10:18:43.886Z,2.35
2023-03-29T10:21:18.468Z,2.17
2023-03-29T10:23:44.605Z,2.65
2023-03-29T10:26:19.269Z,2.38
2023-03-29T10:28:45.636Z,2.50
2023-03-29T10:31:17.942Z,2.72
2023-03-29T10:33:44.178Z,2.55
2023-03-29T10:36:12.582Z,2.17
2023-03-29T10:38:39.130Z,2.58
2023-03-29T10:41:09.625Z,2.20
2023-03-29T10:43:38.269Z,2.20
2023-03-29T10:46:35.274Z,2.80
2023-03-29T10:49:12.435Z,2.40
2023-03-29T10:51:46.474Z,2.03
2023-03-29T10:54:20.057Z,2.70
2023-03-29T10:56:54.405Z,2.78
2023-03-29T10:59:29.952Z,2.55
2023-03-29T11:02:14.271Z,2.50
2023-03-29T11:04:48.731Z,2.10
2023-03-29T11:07:39.492Z,1.77
2023-03-29T11:10:20.812Z,1.95
2023-03-29T11:12:57.954Z,1.70
2023-03-29T11:15:45.171Z,1.63
2023-03-29T11:18:37.275Z,1.70
2023-03-29T11:21:28.544Z,2.50
2023-03-29T11:24:19.643Z,2.00
2023-03-29T11:27:07.806Z,2.03
2023-03-29T11:29:59.589Z,2.58
2023-03-29T11:32:46.047Z,2.28
2023-03-29T11:35:46.157Z,2.20
2023-03-29T11:38:43.374Z,1.88
2023-03-29T11:41:30.301Z,1.95
2023-03-29T11:44:02.779Z,1.73
2023-03-29T11:46:55.066Z,1.77
2023-03-29T11:49:54.176Z,2.10
2023-03-29T11:52:56.607Z,2.28
2023-03-29T11:55:34.507Z,1.80
2023-03-29T11:58:19.808Z,1.65
2023-03-29T12:00:58.915Z,2.25
2023-03-29T12:03:57.251Z,2.08
2023-03-29T12:06:28.893Z,2.00
2023-03-29T12:09:02.712Z,2.05
2023-03-29T12:11:51.315Z,1.92
2023-03-29T12:14:28.741Z,2.10
2023-03-29T12:17:03.877Z,1.85
2023-03-29T12:19:44.301Z,2.00
2023-03-29T12:22:12.967Z,2.10
2023-03-29T12:24:44.553Z,2.28
2023-03-29T12:27:25.395Z,2.05
2023-03-29T12:29:57.596Z,1.88
2023-03-29T12:33:00.918Z,1.80
2023-03-29T12:36:08.914Z,1.90
2023-03-29T12:38:35.998Z,1.60
2023-03-29T12:41:10.462Z,2.17
2023-03-29T12:43:40.871Z,2.00
2023-03-29T12:46:08.767Z,1.83
2023-03-29T12:48:37.746Z,1.80
2023-03-29T12:51:07.980Z,1.80
2023-03-29T12:53:37.682Z,2.22
2023-03-29T12:56:04.048Z,1.95
2023-03-29T12:58:43.367Z,1.80
2023-03-29T13:01:30.917Z,2.22
2023-03-29T13:04:01.159Z,2.03
2023-03-29T13:06:53.731Z,1.50
2023-03-29T13:09:32.429Z,1.17
2023-03-29T13:12:24.105Z,1.52
2023-03-29T13:14:55.539Z,1.40
2023-03-29T13:17:27.279Z,1.70
2023-03-29T13:20:15.211Z,1.40
2023-03-29T13:22:51.106Z,1.45
2023-03-29T13:25:32.085Z,1.80
2023-03-29T13:28:26.574Z,1.33
2023-03-29T13:31:07.213Z,1.60
2023-03-29T13:33:59.248Z,1.60
2023-03-29T13:36:46.683Z,1.40
2023-03-29T13:39:16.838Z,1.83
2023-03-29T13:41:51.218Z,1.65
2023-03-29T13:44:26.692Z,2.03
2023-03-29T13:47:28.760Z,2.05
2023-03-29T13:49:58.468Z,1.67
2023-03-29T13:52:31.834Z,2.67
2023-03-29T13:55:22.274Z,2.08
2023-03-29T13:58:04.391Z,1.52
2023-03-29T14:00:38.739Z,1.98
2023-03-29T14:03:15.397Z,1.83
2023-03-29T14:05:44.465Z,2.28
2023-03-29T14:08:19.869Z,2.60
2023-03-29T14:10:48.861Z,1.90
2023-03-29T14:13:25.761Z,2.10
2023-03-29T14:16:02.965Z,2.53
2023-03-29T14:18:37.341Z,2.17
2023-03-29T14:21:03.803Z,2.67
2023-03-29T14:23:33.488Z,1.95
2023-03-29T14:26:30.565Z,2.08
2023-03-29T14:29:00.874Z,2.13
2023-03-29T14:31:32.621Z,3.63
2023-03-29T14:34:00.629Z,2.63
2023-03-29T14:36:28.370Z,2.55
2023-03-29T14:39:03.518Z,3.13
2023-03-29T14:41:35.523Z,2.75
2023-03-29T14:44:02.696Z,2.90
2023-03-29T14:46:35.386Z,2.30
2023-03-29T14:49:02.016Z,4.28
2023-03-29T14:51:31.334Z,3.42
2023-03-29T14:54:01.361Z,3.10
2023-03-29T14:56:27.774Z,3.38
2023-03-29T14:58:56.152Z,3.28
2023-03-29T15:01:24.268Z,3.80
2023-03-29T15:03:56.877Z,3.88
2023-03-29T15:06:28.398Z,3.53
2023-03-29T15:09:04.990Z,4.95
2023-03-29T15:11:35.004Z,2.95
2023-03-29T15:14:11.742Z,3.25
2023-03-29T15:16:42.283Z,2.78
2023-03-29T15:19:13.703Z,2.50
2023-03-29T15:21:39.951Z,3.42
2023-03-29T15:24:09.838Z,3.17
2023-03-29T15:26:37.846Z,5.15
2023-03-29T15:29:14.315Z,3.80
2023-03-29T15:31:45.802Z,4.15
2023-03-29T15:34:27.978Z,3.33
2023-03-29T15:36:56.824Z,3.50
2023-03-29T15:39:23.780Z,3.63
2023-03-29T15:41:51.389Z,3.50
2023-03-29T15:44:22.477Z,3.53
2023-03-29T15:46:49.254Z,3.20
2023-03-29T15:49:17.806Z,3.22
2023-03-29T15:51:46.705Z,3.22
2023-03-29T15:54:12.975Z,4.47
2023-03-29T15:56:47.163Z,3.55
2023-03-29T15:59:13.266Z,3.15
2023-03-29T16:01:41.535Z,3.28
2023-03-29T16:04:16.076Z,4.00
2023-03-29T16:06:43.630Z,3.67
2023-03-29T16:09:11.398Z,3.08
2023-03-29T16:11:38.806Z,3.38
2023-03-29T16:14:17.560Z,4.20
2023-03-29T16:16:43.785Z,3.80
2023-03-29T16:19:09.892Z,3.63
2023-03-29T16:21:36.456Z,5.05
2023-03-29T16:24:08.484Z,4.55
2023-03-29T16:26:34.610Z,4.55
2023-03-29T16:29:03.847Z,3.60
2023-03-29T16:31:32.349Z,5.07
2023-03-29T16:33:58.616Z,4.20
2023-03-29T16:36:24.850Z,4.13
2023-03-29T16:38:51.317Z,3.75
2023-03-29T16:41:17.571Z,3.85
2023-03-29T16:43:43.762Z,4.35
2023-03-29T16:46:11.043Z,5.18
2023-03-29T16:48:37.347Z,4.13
2023-03-29T16:51:03.734Z,5.25
2023-03-29T16:53:29.933Z,4.10
2023-03-29T16:55:56.972Z,4.50
2023-03-29T16:58:23.800Z,6.40
2023-03-29T17:00:51.636Z,5.40
2023-03-29T17:03:18.077Z,5.63
2023-03-29T17:05:54.872Z,6.07
2023-03-29T17:08:21.398Z,5.00
2023-03-29T17:10:55.136Z,4.03
2023-03-29T17:13:24.310Z,3.90
2023-03-29T17:15:53.714Z,3.45
2023-03-29T17:18:22.456Z,4.90
2023-03-29T17:20:52.403Z,4.30
2023-03-29T17:23:18.442Z,4.05
2023-03-29T17:25:45.615Z,3.97
2023-03-29T17:28:11.800Z,4.07
2023-03-29T17:30:37.896Z,3.30
2023-03-29T17:33:04.639Z,4.07
2023-03-29T17:35:31.385Z,4.07
2023-03-29T17:38:01.095Z,3.22
2023-03-29T17:40:27.631Z,3.85
2023-03-29T17:42:53.813Z,3.50
2023-03-29T17:45:22.200Z,3.95
2023-03-29T17:47:48.791Z,3.60
2023-03-29T17:50:15.354Z,3.88
2023-03-29T17:52:41.639Z,3.63
2023-03-29T17:55:16.168Z,3.47
2023-03-29T17:57:42.604Z,4.40
2023-03-29T18:00:13.512Z,3.50
2023-03-29T18:02:43.055Z,3.65
2023-03-29T18:05:09.780Z,3.90
2023-03-29T18:07:36.555Z,3.55
2023-03-29T18:10:03.438Z,3.13
2023-03-29T18:12:31.947Z,3.63
2023-03-29T18:14:58.685Z,3.80
2023-03-29T18:17:28.487Z,3.22
2023-03-29T18:19:54.883Z,3.20
2023-03-29T18:22:23.472Z,3.45
2023-03-29T18:24:51.094Z,3.22
2023-03-29T18:27:18.409Z,3.97
2023-03-29T18:29:44.654Z,4.55
2023-03-29T18:32:13.855Z,4.20
2023-03-29T18:34:40.051Z,3.42
2023-03-29T18:37:06.929Z,4.00
2023-03-29T18:39:37.435Z,3.83
2023-03-29T18:42:03.686Z,3.15
2023-03-29T18:44:30.230Z,3.95
2023-03-29T18:46:56.336Z,4.00
2023-03-29T18:49:22.620Z,3.42
2023-03-29T18:51:49.471Z,3.35
2023-03-29T18:54:20.129Z,3.28
2023-03-29T18:56:46.542Z,4.03
2023-03-29T18:59:12.713Z,3.50
2023-03-29T19:01:39.992Z,4.38
2023-03-29T19:04:06.402Z,4.30
2023-03-29T19:06:32.489Z,4.78
2023-03-29T19:09:02.350Z,5.03
2023-03-29T19:11:29.228Z,5.40
2023-03-29T19:13:55.438Z,5.30
2023-03-29T19:16:23.448Z,4.72
2023-03-29T19:18:49.605Z,3.97
2023-03-29T19:21:15.690Z,4.13
2023-03-29T19:23:44.201Z,4.32
2023-03-29T19:26:11.076Z,4.25
2023-03-29T19:28:37.237Z,4.05
2023-03-29T19:31:05.636Z,4.00
2023-03-29T19:33:34.620Z,4.28
2023-03-29T19:36:01.062Z,4.07
2023-03-29T19:38:29.582Z,4.00
2023-03-29T19:40:56.160Z,4.15
2023-03-29T19:43:22.392Z,4.25
2023-03-29T19:45:49.829Z,4.03
2023-03-29T19:48:22.463Z,3.38
2023-03-29T19:50:49.723Z,3.70
2023-03-29T19:53:16.038Z,3.58
2023-03-29T19:55:43.797Z,3.33
2023-03-29T19:58:11.584Z,4.57
2023-03-29T20:00:39.312Z,3.80
2023-03-29T20:03:29.365Z,4.00
2023-03-29T20:05:56.519Z,4.00
2023-03-29T20:08:24.286Z,3.63
2023-03-29T20:11:02.001Z,4.25
2023-03-29T20:13:38.016Z,3.65
2023-03-29T20:16:09.320Z,3.80
2023-03-29T20:18:41.382Z,3.83
2023-03-29T20:21:13.606Z,3.90
2023-03-29T20:23:41.398Z,4.32
2023-03-29T20:26:10.039Z,5.10
2023-03-29T20:28:39.987Z,4.72
2023-03-29T20:31:08.589Z,4.93
2023-03-29T20:33:35.107Z,4.03
2023-03-29T20:36:01.447Z,4.45
2023-03-29T20:38:27.860Z,4.45
2023-03-29T20:40:54.923Z,4.60
2023-03-29T20:43:21.045Z,4.13
2023-03-29T20:45:53.641Z,4.28
2023-03-29T20:48:34.558Z,4.47
2023-03-29T20:51:02.512Z,4.53
2023-03-29T20:53:41.405Z,4.28
2023-03-29T20:56:07.658Z,4.32
2023-03-29T20:58:42.538Z,4.63
2023-03-29T21:01:13.729Z,4.47
2023-03-29T21:03:40.933Z,4.25
2023-03-29T21:06:06.989Z,4.75
2023-03-29T21:08:33.382Z,4.97
2023-03-29T21:10:59.658Z,4.75
2023-03-29T21:13:26.201Z,3.95
2023-03-29T21:15:52.428Z,3.88
2023-03-29T21:18:18.738Z,4.25
2023-03-29T21:20:48.035Z,4.00
2023-03-29T21:23:14.315Z,4.30
2023-03-29T21:25:40.467Z,3.83
2023-03-29T21:28:06.651Z,4.18
2023-03-29T21:30:32.741Z,3.90
2023-03-29T21:32:59.994Z,4.30
2023-03-29T21:35:26.237Z,3.20
2023-03-29T21:37:52.358Z,4.05
2023-03-29T21:40:18.636Z,3.90
2023-03-29T21:42:49.287Z,4.18
2023-03-29T21:45:15.633Z,3.63
2023-03-29T21:47:42.954Z,3.90
2023-03-29T21:50:13.218Z,4.10
2023-03-29T21:52:42.187Z,4.22
2023-03-29T21:55:08.383Z,4.35
2023-03-29T21:57:35.253Z,3.50
2023-03-29T22:00:01.562Z,3.88
2023-03-29T22:02:27.656Z,3.60
2023-03-29T22:04:53.762Z,3.95
2023-03-29T22:07:22.257Z,3.75
2023-03-29T22:09:48.249Z,3.90
2023-03-29T22:12:15.926Z,3.75
2023-03-29T22:14:42.011Z,4.30
2023-03-29T22:17:08.964Z,4.07
2023-03-29T22:19:42.993Z,3.80
2023-03-29T22:22:14.084Z,4.20
2023-03-29T22:24:40.910Z,4.30
2023-03-29T22:27:07.844Z,3.97
2023-03-29T22:29:36.808Z,4.47
2023-03-29T22:32:02.985Z,4.18
2023-03-29T22:34:35.746Z,3.50
2023-03-29T22:37:02.070Z,3.72
2023-03-29T22:39:28.363Z,4.05
2023-03-29T22:41:54.511Z,3.78
2023-03-29T22:44:20.778Z,3.75
2023-03-29T22:46:48.629Z,3.40
2023-03-29T22:49:14.867Z,3.83
2023-03-29T22:51:41.082Z,3.47
2023-03-29T22:54:07.263Z,3.78
2023-03-29T22:56:34.326Z,4.28
2023-03-29T22:59:00.402Z,3.60
2023-03-29T23:01:26.440Z,3.70
2023-03-29T23:03:53.687Z,3.67
2023-03-29T23:06:20.088Z,3.63
2023-03-29T23:08:46.211Z,4.25
2023-03-29T23:11:14.038Z,3.30
2023-03-29T23:13:40.510Z,4.20
2023-03-29T23:16:06.903Z,3.63
2023-03-29T23:18:34.443Z,3.75
2023-03-29T23:21:01.097Z,3.63
2023-03-29T23:23:27.992Z,3.53
2023-03-29T23:25:55.279Z,4.28
2023-03-29T23:28:25.444Z,3.92
2023-03-29T23:31:04.945Z,4.03
2023-03-29T23:33:34.580Z,3.60
2023-03-29T23:36:05.289Z,3.85
2023-03-29T23:38:33.877Z,3.53
2023-03-29T23:41:02.675Z,3.40
2023-03-29T23:43:36.340Z,4.15
2023-03-29T23:46:05.500Z,3.50
2023-03-29T23:48:32.287Z,3.90
2023-03-29T23:51:01.947Z,3.95
2023-03-29T23:53:29.086Z,3.88
2023-03-29T23:55:57.834Z,3.55
2023-03-29T23:58:26.524Z,3.95
